Time;durP1;ratioP1;P1;durP2;ratioP2;P2;SDS_P1;SDS_P2;PMS_P1;PMS_P2;Temp;Humidity;BMP_temperature;BMP_pressure;BME280_temperature;BME280_humidity;BME280_pressure;Samples;Min_cycle;Max_cycle;Signal;HPM_P1;HPM_P2
2023/03/20 00:01:15;;;;;;;90.23;41.57;;;;;;;;;;6238760;28;20467;-73
2023/03/20 00:04:15;;;;;;;95.78;40.13;;;;;;;;;;6240082;28;20018;-75
2023/03/20 00:07:15;;;;;;;85.20;38.45;;;;;;;;;;6240094;28;20468;-72
2023/03/20 00:10:16;;;;;;;89.43;42.17;;;;;;;;;;6243763;28;20424;-73
2023/03/20 00:13:23;;;;;;;68.83;36.03;;;;;;;;;;6244106;28;20021;-73
2023/03/20 00:16:25;;;;;;;103.32;47.72;;;;;;;;;;6236920;28;20025;-74
2023/03/20 00:19:28;;;;;;;99.95;45.78;;;;;;;;;;6243902;28;20471;-74
2023/03/20 00:22:30;;;;;;;110.90;48.88;;;;;;;;;;6223897;28;20029;-73
2023/03/20 00:25:31;;;;;;;111.18;52.15;;;;;;;;;;6239442;28;20490;-74
2023/03/20 00:28:37;;;;;;;103.85;49.25;;;;;;;;;;6242759;28;20013;-73
2023/03/20 00:31:38;;;;;;;114.38;49.97;;;;;;;;;;6243081;28;20100;-74
2023/03/20 00:34:38;;;;;;;110.22;53.65;;;;;;;;;;6248158;28;20032;-73
2023/03/20 00:37:39;;;;;;;115.43;54.45;;;;;;;;;;6246890;28;20026;-73
2023/03/20 00:40:39;;;;;;;91.40;36.40;;;;;;;;;;6225115;28;20033;-73
2023/03/20 00:43:39;;;;;;;117.38;53.10;;;;;;;;;;6243327;28;20537;-74
2023/03/20 00:46:40;;;;;;;108.13;47.80;;;;;;;;;;6248556;28;20049;-73
2023/03/20 00:49:40;;;;;;;111.60;54.13;;;;;;;;;;6239020;28;20780;-73
2023/03/20 00:52:40;;;;;;;107.23;49.87;;;;;;;;;;6242381;28;20053;-73
2023/03/20 00:55:41;;;;;;;93.67;44.03;;;;;;;;;;6245924;28;20592;-73
2023/03/20 00:58:41;;;;;;;106.03;44.92;;;;;;;;;;6243158;28;20280;-73
2023/03/20 01:01:41;;;;;;;92.83;39.43;;;;;;;;;;6243990;28;20028;-74
2023/03/20 01:04:42;;;;;;;98.80;43.13;;;;;;;;;;6243071;28;20110;-73
2023/03/20 01:07:42;;;;;;;94.43;43.35;;;;;;;;;;6242802;28;20383;-73
2023/03/20 01:10:44;;;;;;;89.80;45.10;;;;;;;;;;6249716;28;20022;-73
2023/03/20 01:13:44;;;;;;;84.63;42.50;;;;;;;;;;6236774;28;20026;-73
2023/03/20 01:16:44;;;;;;;92.38;43.75;;;;;;;;;;6248884;28;20057;-73
2023/03/20 01:19:44;;;;;;;93.33;43.33;;;;;;;;;;6243625;28;20044;-73
2023/03/20 01:22:45;;;;;;;90.35;42.67;;;;;;;;;;6251097;28;20033;-75
2023/03/20 01:25:45;;;;;;;85.68;42.67;;;;;;;;;;6245037;28;20433;-75
2023/03/20 01:28:46;;;;;;;82.04;35.78;;;;;;;;;;6251440;28;20017;-73
2023/03/20 01:31:47;;;;;;;86.40;37.88;;;;;;;;;;6244610;28;20128;-73
2023/03/20 01:34:47;;;;;;;90.77;44.63;;;;;;;;;;6258490;28;20118;-73
2023/03/20 01:37:48;;;;;;;88.65;40.45;;;;;;;;;;6244679;28;20036;-73
2023/03/20 01:40:51;;;;;;;90.83;39.83;;;;;;;;;;6255619;28;20092;-74
2023/03/20 01:43:51;;;;;;;89.63;40.92;;;;;;;;;;6241699;28;20067;-73
2023/03/20 01:46:52;;;;;;;86.22;41.13;;;;;;;;;;6229638;28;20017;-73
2023/03/20 01:50:11;;;;;;;93.93;41.33;;;;;;;;;;6246720;28;20111;-73
2023/03/20 01:53:16;;;;;;;101.13;50.08;;;;;;;;;;6246805;28;20057;-73
2023/03/20 01:56:18;;;;;;;103.15;44.08;;;;;;;;;;6233931;28;20066;-73
2023/03/20 01:59:28;;;;;;;94.43;45.50;;;;;;;;;;6246295;28;20021;-74
2023/03/20 02:02:29;;;;;;;91.18;41.92;;;;;;;;;;6247632;28;20028;-77
2023/03/20 02:05:30;;;;;;;88.32;40.70;;;;;;;;;;6246746;28;20025;-78
2023/03/20 02:08:31;;;;;;;78.90;38.92;;;;;;;;;;6245479;28;20087;-78
2023/03/20 02:11:31;;;;;;;83.50;39.47;;;;;;;;;;6249597;28;20005;-77
2023/03/20 02:14:32;;;;;;;81.45;39.53;;;;;;;;;;6245087;28;20406;-78
2023/03/20 02:17:32;;;;;;;74.95;34.92;;;;;;;;;;6242084;28;20493;-79
2023/03/20 02:20:41;;;;;;;80.20;36.93;;;;;;;;;;6229640;28;20017;-79
2023/03/20 02:24:08;;;;;;;73.05;35.72;;;;;;;;;;6249429;28;20018;-79
2023/03/20 02:27:27;;;;;;;68.55;33.88;;;;;;;;;;6248170;28;20025;-79
2023/03/20 02:30:30;;;;;;;88.72;40.90;;;;;;;;;;6246435;28;20025;-79
2023/03/20 02:33:46;;;;;;;91.57;42.05;;;;;;;;;;6246881;28;20051;-79
2023/03/20 02:36:58;;;;;;;77.80;39.60;;;;;;;;;;6229700;28;20029;-79
2023/03/20 02:40:17;;;;;;;87.82;41.83;;;;;;;;;;6253629;28;20030;-78
2023/03/20 02:43:26;;;;;;;86.18;37.13;;;;;;;;;;6228565;28;20104;-78
2023/03/20 02:46:27;;;;;;;75.35;39.13;;;;;;;;;;6241085;28;20014;-78
2023/03/20 02:49:46;;;;;;;78.55;39.47;;;;;;;;;;6246673;28;20029;-78
2023/03/20 02:52:46;;;;;;;92.38;41.97;;;;;;;;;;6234182;28;20112;-79
2023/03/20 02:55:57;;;;;;;84.70;41.33;;;;;;;;;;6253420;28;20056;-78
2023/03/20 02:59:16;;;;;;;73.95;39.97;;;;;;;;;;6253611;28;20441;-78
2023/03/20 03:02:19;;;;;;;92.00;40.22;;;;;;;;;;6243478;28;20379;-78
2023/03/20 03:05:24;;;;;;;77.68;37.90;;;;;;;;;;6251017;28;20159;-77
2023/03/20 03:08:27;;;;;;;81.97;36.35;;;;;;;;;;6244881;28;20108;-78
2023/03/20 03:11:29;;;;;;;83.18;41.38;;;;;;;;;;6245170;28;20804;-78
2023/03/20 03:14:29;;;;;;;93.70;44.47;;;;;;;;;;6246121;28;20056;-78
2023/03/20 03:17:31;;;;;;;91.40;47.23;;;;;;;;;;6245075;28;20497;-77
2023/03/20 03:20:33;;;;;;;91.70;43.40;;;;;;;;;;6251017;28;20045;-77
2023/03/20 03:23:36;;;;;;;79.53;39.83;;;;;;;;;;6247149;28;20098;-78
2023/03/20 03:26:38;;;;;;;77.38;38.30;;;;;;;;;;6249525;28;20025;-78
2023/03/20 03:29:39;;;;;;;79.65;38.53;;;;;;;;;;6247238;28;20013;-78
2023/03/20 03:32:48;;;;;;;83.32;36.95;;;;;;;;;;6246104;28;20040;-78
2023/03/20 03:35:49;;;;;;;72.00;34.05;;;;;;;;;;6246988;28;20293;-78
2023/03/20 03:39:07;;;;;;;87.43;39.92;;;;;;;;;;6245653;28;20124;-78
2023/03/20 03:42:32;;;;;;;82.65;38.63;;;;;;;;;;6239821;28;20009;-77
2023/03/20 03:45:35;;;;;;;76.72;37.05;;;;;;;;;;6243730;28;20024;-79
2023/03/20 03:48:39;;;;;;;78.15;38.60;;;;;;;;;;6247069;28;20013;-77
2023/03/20 03:51:42;;;;;;;76.18;35.72;;;;;;;;;;6244422;28;20435;-77
2023/03/20 03:54:54;;;;;;;70.07;34.92;;;;;;;;;;6228199;28;20052;-79
2023/03/20 03:57:56;;;;;;;81.45;38.75;;;;;;;;;;6240981;28;20030;-78
2023/03/20 04:00:57;;;;;;;80.07;37.30;;;;;;;;;;6247199;28;20124;-78
2023/03/20 04:03:59;;;;;;;73.13;37.23;;;;;;;;;;6242119;28;20018;-78
2023/03/20 04:07:00;;;;;;;68.75;34.83;;;;;;;;;;6244163;28;20264;-78
2023/03/20 04:10:00;;;;;;;53.95;27.17;;;;;;;;;;6243667;28;20053;-78
2023/03/20 04:13:00;;;;;;;75.80;35.80;;;;;;;;;;6243769;28;20084;-78
2023/03/20 04:16:00;;;;;;;82.50;40.13;;;;;;;;;;6244756;28;20098;-79
2023/03/20 04:19:01;;;;;;;79.87;37.17;;;;;;;;;;6243734;28;20399;-78
2023/03/20 04:22:01;;;;;;;83.87;40.30;;;;;;;;;;6240430;28;20052;-78
2023/03/20 04:25:02;;;;;;;77.10;41.03;;;;;;;;;;6243309;28;21115;-78
2023/03/20 04:28:03;;;;;;;74.60;35.88;;;;;;;;;;6246055;28;20507;-78
2023/03/20 04:31:05;;;;;;;86.80;41.42;;;;;;;;;;6251618;28;20029;-78
2023/03/20 04:34:06;;;;;;;88.57;46.78;;;;;;;;;;6248941;28;20042;-78
2023/03/20 04:37:07;;;;;;;90.50;39.38;;;;;;;;;;6252445;28;20102;-79
2023/03/20 04:40:08;;;;;;;82.57;39.53;;;;;;;;;;6252662;28;20107;-78
2023/03/20 04:43:08;;;;;;;78.10;37.37;;;;;;;;;;6269210;28;20274;-79
2023/03/20 04:46:08;;;;;;;85.35;37.38;;;;;;;;;;6249826;28;20256;-78
2023/03/20 04:49:09;;;;;;;76.22;36.58;;;;;;;;;;6249323;28;20025;-78
2023/03/20 04:52:09;;;;;;;80.43;36.78;;;;;;;;;;6243390;28;20017;-77
2023/03/20 04:55:09;;;;;;;83.75;37.97;;;;;;;;;;6244174;28;20164;-78
2023/03/20 04:58:09;;;;;;;109.80;46.00;;;;;;;;;;6242503;28;20557;-78
2023/03/20 05:01:11;;;;;;;355.88;115.10;;;;;;;;;;6235241;28;20486;-78
2023/03/20 05:04:11;;;;;;;252.25;85.50;;;;;;;;;;6235269;28;20360;-78
2023/03/20 05:07:13;;;;;;;164.27;63.27;;;;;;;;;;6243089;28;20065;-78
2023/03/20 05:10:13;;;;;;;155.50;58.35;;;;;;;;;;6245416;28;20045;-78
2023/03/20 05:13:13;;;;;;;163.83;59.87;;;;;;;;;;6249231;28;20556;-77
2023/03/20 05:16:13;;;;;;;93.47;43.83;;;;;;;;;;6245865;28;20035;-78
2023/03/20 05:19:13;;;;;;;88.57;37.03;;;;;;;;;;6243408;28;20017;-78
2023/03/20 05:22:14;;;;;;;88.73;40.97;;;;;;;;;;6245037;28;20480;-78
2023/03/20 05:25:15;;;;;;;65.68;31.90;;;;;;;;;;6246603;28;20024;-78
2023/03/20 05:28:15;;;;;;;92.83;41.40;;;;;;;;;;6251672;28;20029;-78
2023/03/20 05:31:15;;;;;;;85.43;38.63;;;;;;;;;;6235354;28;20028;-78
2023/03/20 05:34:15;;;;;;;85.80;39.53;;;;;;;;;;6235085;28;20491;-78
2023/03/20 05:37:16;;;;;;;76.82;39.97;;;;;;;;;;6249289;28;20029;-76
2023/03/20 05:40:18;;;;;;;87.63;40.00;;;;;;;;;;6247071;28;20064;-78
2023/03/20 05:43:18;;;;;;;;;;;;;;;;;;6242583;28;20264;-78
2023/03/20 05:46:18;;;;;;;78.07;40.50;;;;;;;;;;6238491;28;19955;-78
2023/03/20 05:49:18;;;;;;;73.70;37.97;;;;;;;;;;6244926;28;20108;-78
2023/03/20 05:52:18;;;;;;;82.80;40.57;;;;;;;;;;6226759;28;20476;-79
2023/03/20 05:55:20;;;;;;;82.85;40.88;;;;;;;;;;6244909;28;20037;-78
2023/03/20 05:58:20;;;;;;;76.88;39.78;;;;;;;;;;6225506;28;20075;-79
2023/03/20 06:01:20;;;;;;;73.63;36.38;;;;;;;;;;6246139;28;20022;-79
2023/03/20 06:04:21;;;;;;;69.73;35.27;;;;;;;;;;6246975;28;20079;-79
2023/03/20 06:07:21;;;;;;;72.32;38.13;;;;;;;;;;6246120;28;20086;-79
2023/03/20 06:10:21;;;;;;;69.93;37.00;;;;;;;;;;6239529;28;20403;-80
2023/03/20 06:13:21;;;;;;;62.57;34.13;;;;;;;;;;6236258;28;20037;-78
2023/03/20 06:16:21;;;;;;;63.80;36.33;;;;;;;;;;6230080;28;20032;-81
2023/03/20 06:19:22;;;;;;;68.32;37.85;;;;;;;;;;6240590;28;20022;-80
2023/03/20 06:22:22;;;;;;;56.60;32.03;;;;;;;;;;6237943;28;20129;-79
2023/03/20 06:25:22;;;;;;;61.30;31.13;;;;;;;;;;6228786;28;20030;-79
2023/03/20 06:28:22;;;;;;;54.93;32.63;;;;;;;;;;6236601;28;20079;-79
2023/03/20 06:31:22;;;;;;;55.30;29.98;;;;;;;;;;6241026;28;20021;-80
2023/03/20 06:34:23;;;;;;;52.38;26.75;;;;;;;;;;6241087;28;20083;-79
2023/03/20 06:37:23;;;;;;;55.07;28.47;;;;;;;;;;6226609;28;20025;-78
2023/03/20 06:40:24;;;;;;;53.13;29.90;;;;;;;;;;6229138;28;20137;-78
2023/03/20 06:43:24;;;;;;;65.87;30.23;;;;;;;;;;6240555;28;20033;-80
2023/03/20 06:46:24;;;;;;;67.40;37.23;;;;;;;;;;6247367;28;20024;-79
2023/03/20 06:49:25;;;;;;;66.83;32.50;;;;;;;;;;6238794;28;20018;-79
2023/03/20 06:52:25;;;;;;;61.23;31.20;;;;;;;;;;6228791;28;20034;-79
2023/03/20 06:55:25;;;;;;;68.93;34.33;;;;;;;;;;6248234;28;20032;-79
2023/03/20 06:58:25;;;;;;;71.38;36.78;;;;;;;;;;6223709;28;20496;-80
2023/03/20 07:01:26;;;;;;;71.67;39.20;;;;;;;;;;6241694;28;20021;-77
2023/03/20 07:04:26;;;;;;;72.77;36.80;;;;;;;;;;6235959;28;20013;-77
2023/03/20 07:07:26;;;;;;;62.77;34.13;;;;;;;;;;6233390;28;20410;-77
2023/03/20 07:10:27;;;;;;;68.00;35.73;;;;;;;;;;6234098;28;20025;-78
2023/03/20 07:13:27;;;;;;;52.83;31.37;;;;;;;;;;6233519;28;20064;-78
2023/03/20 07:16:27;;;;;;;73.77;36.97;;;;;;;;;;6237308;28;20022;-77
2023/03/20 07:19:27;;;;;;;65.85;33.83;;;;;;;;;;6237695;28;20025;-78
2023/03/20 07:22:28;;;;;;;66.83;34.27;;;;;;;;;;6225037;28;20025;-78
2023/03/20 07:25:29;;;;;;;58.72;31.50;;;;;;;;;;6233990;28;20022;-78
2023/03/20 07:28:29;;;;;;;60.50;30.63;;;;;;;;;;6235138;28;20060;-78
2023/03/20 07:31:31;;;;;;;54.20;29.40;;;;;;;;;;6234170;28;20017;-78
2023/03/20 07:34:31;;;;;;;58.20;30.25;;;;;;;;;;6237495;28;20026;-78
2023/03/20 07:37:31;;;;;;;55.37;31.83;;;;;;;;;;6239517;28;20037;-78
2023/03/20 07:40:31;;;;;;;62.70;30.20;;;;;;;;;;6242574;28;20034;-79
2023/03/20 07:43:32;;;;;;;48.77;28.60;;;;;;;;;;6239640;28;20014;-78
2023/03/20 07:46:32;;;;;;;44.90;27.10;;;;;;;;;;6242186;28;20071;-79
2023/03/20 07:49:33;;;;;;;51.57;29.30;;;;;;;;;;6239180;28;20040;-79
2023/03/20 07:52:33;;;;;;;56.70;29.90;;;;;;;;;;6232670;28;20086;-78
2023/03/20 07:55:33;;;;;;;48.93;28.17;;;;;;;;;;6231433;28;20038;-78
2023/03/20 07:58:34;;;;;;;45.83;28.03;;;;;;;;;;6217104;28;20025;-78
2023/03/20 08:01:34;;;;;;;36.23;21.40;;;;;;;;;;6225307;28;20025;-78
2023/03/20 08:04:35;;;;;;;41.03;23.03;;;;;;;;;;6239192;28;20017;-78
2023/03/20 08:07:35;;;;;;;36.42;21.60;;;;;;;;;;6239965;28;20408;-78
2023/03/20 08:10:35;;;;;;;39.30;23.33;;;;;;;;;;6237111;28;20026;-79
2023/03/20 08:13:36;;;;;;;41.13;24.93;;;;;;;;;;6236271;28;20024;-79
2023/03/20 08:16:36;;;;;;;43.13;24.60;;;;;;;;;;6240156;28;20057;-78
2023/03/20 08:19:37;;;;;;;44.67;24.83;;;;;;;;;;6238831;28;20018;-78
2023/03/20 08:22:37;;;;;;;44.60;27.40;;;;;;;;;;6240393;28;20032;-79
2023/03/20 08:25:37;;;;;;;45.20;28.77;;;;;;;;;;6232473;28;20419;-79
2023/03/20 08:28:38;;;;;;;51.00;29.60;;;;;;;;;;6227998;28;20021;-78
2023/03/20 08:31:38;;;;;;;46.03;26.37;;;;;;;;;;6241644;28;20488;-79
2023/03/20 08:34:38;;;;;;;46.77;24.97;;;;;;;;;;6243792;28;20057;-79
2023/03/20 08:37:39;;;;;;;46.90;26.70;;;;;;;;;;6240577;28;20104;-79
2023/03/20 08:40:40;;;;;;;45.00;28.97;;;;;;;;;;6243369;28;20028;-79
2023/03/20 08:43:40;;;;;;;49.88;29.00;;;;;;;;;;6242972;28;20037;-79
2023/03/20 08:46:42;;;;;;;45.27;27.13;;;;;;;;;;6243448;28;20053;-80
2023/03/20 08:49:43;;;;;;;42.72;25.33;;;;;;;;;;6244900;28;20021;-79
2023/03/20 08:52:43;;;;;;;44.97;27.00;;;;;;;;;;6247767;28;20040;-80
2023/03/20 08:55:50;;;;;;;44.57;24.90;;;;;;;;;;6248607;28;20589;-80
2023/03/20 08:58:52;;;;;;;43.65;27.17;;;;;;;;;;6240467;28;20022;-79
2023/03/20 09:01:54;;;;;;;46.60;26.67;;;;;;;;;;6243469;28;20104;-77
2023/03/20 09:04:54;;;;;;;51.43;27.77;;;;;;;;;;6243413;28;20022;-78
2023/03/20 09:07:54;;;;;;;55.03;30.07;;;;;;;;;;6234263;28;20032;-77
2023/03/20 09:10:55;;;;;;;53.20;27.30;;;;;;;;;;6228541;28;20460;-77
2023/03/20 09:13:55;;;;;;;46.58;27.60;;;;;;;;;;6233605;28;20013;-77
2023/03/20 09:16:55;;;;;;;43.10;26.95;;;;;;;;;;6232355;28;20357;-77
2023/03/20 09:19:55;;;;;;;48.93;28.77;;;;;;;;;;6230782;28;20017;-78
2023/03/20 09:22:55;;;;;;;46.00;27.60;;;;;;;;;;6232482;28;20022;-78
2023/03/20 09:25:56;;;;;;;55.37;28.97;;;;;;;;;;6240443;28;20132;-77
2023/03/20 09:28:56;;;;;;;46.30;30.47;;;;;;;;;;6243161;28;20025;-78
2023/03/20 09:31:56;;;;;;;42.30;27.33;;;;;;;;;;6230555;28;20026;-78
2023/03/20 09:34:56;;;;;;;51.23;27.13;;;;;;;;;;6230544;28;20499;-78
2023/03/20 09:37:56;;;;;;;53.72;33.20;;;;;;;;;;6242767;28;20018;-78
2023/03/20 09:41:01;;;;;;;50.77;31.27;;;;;;;;;;6247202;28;20064;-78
2023/03/20 09:44:01;;;;;;;50.53;30.38;;;;;;;;;;6248090;28;20025;-78
2023/03/20 09:47:20;;;;;;;57.17;34.85;;;;;;;;;;6241751;28;20049;-79
2023/03/20 09:50:22;;;;;;;50.40;33.90;;;;;;;;;;6233436;28;20083;-79
2023/03/20 09:53:22;;;;;;;55.92;35.10;;;;;;;;;;6235522;28;20038;-79
2023/03/20 09:56:24;;;;;;;55.77;34.47;;;;;;;;;;6235667;28;20052;-79
2023/03/20 09:59:25;;;;;;;58.28;35.75;;;;;;;;;;6241368;28;20114;-79
2023/03/20 10:02:35;;;;;;;64.80;39.80;;;;;;;;;;6236039;28;20068;-78
2023/03/20 10:05:37;;;;;;;63.67;38.88;;;;;;;;;;6247173;28;20018;-78
2023/03/20 10:08:38;;;;;;;58.97;33.17;;;;;;;;;;6246232;28;20087;-78
2023/03/20 10:11:56;;;;;;;52.17;31.60;;;;;;;;;;6245164;28;20033;-78
2023/03/20 10:15:05;;;;;;;50.50;31.08;;;;;;;;;;6227482;28;20025;-78
2023/03/20 10:18:15;;;;;;;52.97;31.63;;;;;;;;;;6244170;28;20022;-78
2023/03/20 10:21:17;;;;;;;55.42;32.45;;;;;;;;;;6246223;28;20033;-78
2023/03/20 10:24:18;;;;;;;47.30;28.35;;;;;;;;;;6246204;28;20450;-79
2023/03/20 10:27:22;;;;;;;50.63;30.93;;;;;;;;;;6239411;28;20018;-79
2023/03/20 10:30:28;;;;;;;47.10;29.67;;;;;;;;;;6233613;28;20044;-76
2023/03/20 10:33:36;;;;;;;56.80;34.25;;;;;;;;;;6230353;28;20045;-78
2023/03/20 10:37:12;;;;;;;45.63;26.95;;;;;;;;;;6240666;28;20507;-78
2023/03/20 10:40:22;;;;;;;41.58;27.05;;;;;;;;;;6165436;28;20456;-78
2023/03/20 10:43:26;;;;;;;48.03;30.23;;;;;;;;;;6244007;28;20025;-78
2023/03/20 10:46:29;;;;;;;48.72;29.70;;;;;;;;;;6234627;28;20076;-78
2023/03/20 10:49:29;;;;;;;48.65;30.58;;;;;;;;;;6230521;28;20360;-79
2023/03/20 10:52:34;;;;;;;46.17;27.43;;;;;;;;;;6235635;28;20022;-79
2023/03/20 10:55:39;;;;;;;46.75;28.75;;;;;;;;;;6233815;28;20026;-78
2023/03/20 10:58:41;;;;;;;46.08;29.52;;;;;;;;;;6230000;28;20018;-78
2023/03/20 11:01:42;;;;;;;42.63;24.77;;;;;;;;;;6239407;28;20376;-78
2023/03/20 11:04:42;;;;;;;47.27;28.93;;;;;;;;;;6233765;28;20388;-78
2023/03/20 11:07:43;;;;;;;42.37;27.87;;;;;;;;;;6230662;28;20029;-77
2023/03/20 11:10:43;;;;;;;47.10;26.73;;;;;;;;;;6239928;28;20480;-79
2023/03/20 11:13:44;;;;;;;42.83;27.40;;;;;;;;;;6228018;28;20022;-75
2023/03/20 11:16:48;;;;;;;45.57;27.83;;;;;;;;;;6235650;28;20021;-79
2023/03/20 11:19:50;;;;;;;48.17;29.00;;;;;;;;;;6237594;28;20371;-79
2023/03/20 11:22:56;;;;;;;48.38;27.83;;;;;;;;;;6231073;28;20022;-78
2023/03/20 11:25:58;;;;;;;42.67;28.60;;;;;;;;;;6231696;28;20032;-79
2023/03/20 11:28:59;;;;;;;44.10;27.00;;;;;;;;;;6240871;28;20094;-78
2023/03/20 11:32:04;;;;;;;44.63;30.80;;;;;;;;;;6235745;28;20828;-78
2023/03/20 11:35:21;;;;;;;45.70;29.05;;;;;;;;;;6330190;27;20386;-78
2023/03/20 11:38:22;;;;;;;46.80;30.77;;;;;;;;;;6310414;28;20016;-78
2023/03/20 11:41:24;;;;;;;47.83;31.60;;;;;;;;;;6300992;28;20017;-78
2023/03/20 11:44:28;;;;;;;46.92;29.27;;;;;;;;;;6301109;28;20025;-78
2023/03/20 11:47:32;;;;;;;44.92;26.08;;;;;;;;;;6310031;28;20081;-78
2023/03/20 11:50:34;;;;;;;43.05;26.65;;;;;;;;;;6307843;28;20034;-78
2023/03/20 11:53:35;;;;;;;44.15;26.38;;;;;;;;;;6296237;28;20054;-78
2023/03/20 11:56:35;;;;;;;45.35;26.50;;;;;;;;;;6312952;28;20099;-78
2023/03/20 11:59:36;;;;;;;35.47;22.05;;;;;;;;;;6314196;28;20028;-78
2023/03/20 12:02:38;;;;;;;44.90;25.27;;;;;;;;;;6307163;28;20054;-78
2023/03/20 12:05:39;;;;;;;35.92;23.13;;;;;;;;;;6313966;28;20020;-78
2023/03/20 12:08:40;;;;;;;30.70;17.40;;;;;;;;;;6333604;28;20437;-78
2023/03/20 12:11:50;;;;;;;31.13;20.73;;;;;;;;;;6317051;28;20024;-78
2023/03/20 12:14:55;;;;;;;33.40;18.70;;;;;;;;;;6314530;28;20458;-78
2023/03/20 12:17:58;;;;;;;45.17;27.60;;;;;;;;;;6332170;28;20034;-76
2023/03/20 12:20:58;;;;;;;26.70;17.05;;;;;;;;;;6335227;28;20019;-78
2023/03/20 12:24:00;;;;;;;28.13;15.27;;;;;;;;;;6337207;28;20417;-78
2023/03/20 12:27:07;;;;;;;26.58;16.17;;;;;;;;;;6333620;28;20103;-78
2023/03/20 12:30:15;;;;;;;36.65;21.73;;;;;;;;;;6331279;28;20106;-78
2023/03/20 12:33:18;;;;;;;38.08;22.45;;;;;;;;;;6335234;28;20040;-78
2023/03/20 12:36:30;;;;;;;41.25;21.80;;;;;;;;;;6328977;28;20028;-78
2023/03/20 12:39:35;;;;;;;34.60;19.90;;;;;;;;;;6333580;28;20024;-78
2023/03/20 12:42:35;;;;;;;25.20;16.65;;;;;;;;;;6332600;28;20024;-77
2023/03/20 12:45:42;;;;;;;38.27;19.13;;;;;;;;;;6319332;28;20091;-77
2023/03/20 12:49:06;;;;;;;29.55;17.42;;;;;;;;;;6319955;28;20020;-78
2023/03/20 12:52:25;;;;;;;46.75;27.48;;;;;;;;;;6292966;28;20039;-79
2023/03/20 12:55:25;;;;;;;31.65;20.45;;;;;;;;;;6297509;28;20020;-78
2023/03/20 12:58:32;;;;;;;32.90;20.60;;;;;;;;;;6315318;28;20050;-78
2023/03/20 13:01:58;;;;;;;26.85;16.92;;;;;;;;;;6309683;28;20020;-78
2023/03/20 13:05:06;;;;;;;37.75;19.80;;;;;;;;;;6313133;28;20028;-78
2023/03/20 13:08:13;;;;;;;29.42;19.52;;;;;;;;;;6312204;28;20042;-78
2023/03/20 13:11:35;;;;;;;31.23;19.67;;;;;;;;;;6312127;28;20359;-79
2023/03/20 13:14:45;;;;;;;30.15;18.92;;;;;;;;;;6314087;28;20052;-77
2023/03/20 13:17:45;;;;;;;27.50;17.35;;;;;;;;;;6306315;28;20100;-78
2023/03/20 13:20:54;;;;;;;29.42;19.13;;;;;;;;;;6306090;28;20039;-79
2023/03/20 13:23:54;;;;;;;25.02;16.63;;;;;;;;;;6308105;28;20022;-80
2023/03/20 13:27:00;;;;;;;25.17;16.40;;;;;;;;;;6312349;28;20024;-78
2023/03/20 13:30:06;;;;;;;25.75;15.68;;;;;;;;;;6314526;28;20012;-79
2023/03/20 13:33:18;;;;;;;29.35;18.77;;;;;;;;;;6311761;28;20048;-78
2023/03/20 13:36:33;;;;;;;26.58;18.05;;;;;;;;;;6297041;28;20017;-79
2023/03/20 13:39:39;;;;;;;34.00;21.40;;;;;;;;;;6306969;28;20020;-78
2023/03/20 13:43:03;;;;;;;32.17;19.10;;;;;;;;;;6306964;28;20022;-77
2023/03/20 13:46:17;;;;;;;25.55;17.25;;;;;;;;;;6280949;28;20132;-78
2023/03/20 13:49:24;;;;;;;23.38;15.50;;;;;;;;;;6319125;28;20031;-78
2023/03/20 13:52:29;;;;;;;26.13;16.83;;;;;;;;;;6311465;28;20065;-79
2023/03/20 13:55:55;;;;;;;24.92;17.52;;;;;;;;;;6311687;28;20078;-78
2023/03/20 13:58:59;;;;;;;24.58;18.80;;;;;;;;;;6276094;28;20052;-79
2023/03/20 14:02:06;;;;;;;30.48;18.17;;;;;;;;;;6300038;28;20509;-79
2023/03/20 14:05:11;;;;;;;31.27;19.38;;;;;;;;;;6320499;28;20434;-78
2023/03/20 14:08:31;;;;;;;32.80;20.38;;;;;;;;;;6315521;28;20106;-78
2023/03/20 14:11:34;;;;;;;30.42;21.10;;;;;;;;;;6307357;28;20024;-79
2023/03/20 14:14:44;;;;;;;31.75;19.70;;;;;;;;;;6288528;28;20474;-78
2023/03/20 14:17:49;;;;;;;30.75;18.50;;;;;;;;;;6319211;28;20068;-79
2023/03/20 14:20:52;;;;;;;25.45;17.65;;;;;;;;;;6305613;28;20013;-79
2023/03/20 14:23:59;;;;;;;30.40;17.05;;;;;;;;;;6317547;28;20073;-80
2023/03/20 14:26:59;;;;;;;28.48;19.30;;;;;;;;;;6313904;28;20508;-80
2023/03/20 14:30:35;;;;;;;31.83;22.43;;;;;;;;;;6314643;28;20016;-80
2023/03/20 14:33:40;;;;;;;44.72;28.35;;;;;;;;;;6190269;28;20050;-80
2023/03/20 14:36:59;;;;;;;39.30;24.58;;;;;;;;;;6310480;28;20489;-80
2023/03/20 14:40:13;;;;;;;30.98;20.88;;;;;;;;;;6313480;28;20045;-80
2023/03/20 14:43:17;;;;;;;33.33;21.90;;;;;;;;;;6296066;28;20031;-78
2023/03/20 14:46:36;;;;;;;34.22;21.67;;;;;;;;;;6314236;28;20482;-79
2023/03/20 14:49:45;;;;;;;33.83;22.20;;;;;;;;;;6311166;28;20020;-80
2023/03/20 14:53:01;;;;;;;32.67;19.05;;;;;;;;;;6322431;28;20031;-81
2023/03/20 14:56:11;;;;;;;31.23;19.80;;;;;;;;;;6320783;28;20015;-79
2023/03/20 14:59:13;;;;;;;28.80;19.35;;;;;;;;;;6325613;28;20043;-80
2023/03/20 15:02:24;;;;;;;26.67;18.57;;;;;;;;;;6316370;28;20025;-80
2023/03/20 15:05:30;;;;;;;31.87;17.83;;;;;;;;;;6319067;28;20019;-79
2023/03/20 15:08:33;;;;;;;30.48;17.90;;;;;;;;;;6304172;28;20028;-80
2023/03/20 15:11:33;;;;;;;25.33;15.38;;;;;;;;;;6308913;28;20024;-80
2023/03/20 15:14:44;;;;;;;28.57;17.97;;;;;;;;;;6298673;28;20020;-79
2023/03/20 15:17:46;;;;;;;31.70;18.25;;;;;;;;;;6302016;28;20023;-80
2023/03/20 15:20:46;;;;;;;;;;;;;;;;;;6310234;28;20027;-80
2023/03/20 15:23:46;;;;;;;25.40;15.52;;;;;;;;;;6311804;28;19915;-80
2023/03/20 15:26:49;;;;;;;30.70;18.57;;;;;;;;;;6308753;28;20012;-79
2023/03/20 15:29:51;;;;;;;28.40;16.95;;;;;;;;;;6311512;28;20085;-79
2023/03/20 15:32:52;;;;;;;24.35;17.52;;;;;;;;;;6298960;28;20040;-79
2023/03/20 15:35:53;;;;;;;31.70;19.08;;;;;;;;;;6309335;28;20051;-80
2023/03/20 15:39:10;;;;;;;34.50;18.23;;;;;;;;;;6308883;28;20023;-79
2023/03/20 15:42:12;;;;;;;37.28;20.95;;;;;;;;;;6289702;28;20386;-80
2023/03/20 15:45:20;;;;;;;39.53;23.00;;;;;;;;;;6322491;28;20433;-79
2023/03/20 15:48:22;;;;;;;40.90;24.38;;;;;;;;;;6321233;28;20023;-81
2023/03/20 15:51:25;;;;;;;34.72;23.30;;;;;;;;;;6319353;28;20066;-80
2023/03/20 15:54:25;;;;;;;51.40;30.42;;;;;;;;;;6310894;28;20100;-81
2023/03/20 15:57:30;;;;;;;58.90;34.50;;;;;;;;;;6316439;28;20026;-81
2023/03/20 16:00:43;;;;;;;54.95;33.10;;;;;;;;;;6318139;28;20020;-82
2023/03/20 16:03:43;;;;;;;55.63;34.88;;;;;;;;;;6314707;28;20038;-80
2023/03/20 16:06:50;;;;;;;83.43;46.53;;;;;;;;;;6315851;28;20524;-80
2023/03/20 16:09:51;;;;;;;69.40;39.30;;;;;;;;;;6318739;28;20043;-80
2023/03/20 16:12:55;;;;;;;59.53;36.90;;;;;;;;;;6320847;28;20016;-80
2023/03/20 16:15:55;;;;;;;57.83;34.17;;;;;;;;;;6319329;28;20464;-81
2023/03/20 16:18:56;;;;;;;55.17;32.37;;;;;;;;;;6319642;28;20012;-79
2023/03/20 16:21:56;;;;;;;54.73;34.47;;;;;;;;;;6318986;28;20098;-80
2023/03/20 16:24:58;;;;;;;50.70;30.10;;;;;;;;;;6315658;28;20023;-80
2023/03/20 16:27:58;;;;;;;54.53;35.08;;;;;;;;;;6317524;28;20125;-80
2023/03/20 16:31:09;;;;;;;52.90;31.53;;;;;;;;;;6320813;28;20019;-80
2023/03/20 16:34:16;;;;;;;57.80;35.65;;;;;;;;;;6309422;28;20040;-81
2023/03/20 16:37:40;;;;;;;50.10;33.60;;;;;;;;;;6309343;28;20017;-79
2023/03/20 16:40:40;;;;;;;54.97;36.30;;;;;;;;;;6301131;28;20090;-80
2023/03/20 16:43:44;;;;;;;69.43;42.10;;;;;;;;;;6322870;28;20016;-79
2023/03/20 16:46:58;;;;;;;111.50;65.38;;;;;;;;;;6300318;28;20108;-80
2023/03/20 16:50:04;;;;;;;146.57;77.45;;;;;;;;;;6320384;28;20058;-80
2023/03/20 16:53:09;;;;;;;183.32;98.70;;;;;;;;;;6322810;28;20031;-80
2023/03/20 16:56:15;;;;;;;188.07;100.57;;;;;;;;;;6317757;28;20477;-80
2023/03/20 16:59:16;;;;;;;185.13;102.65;;;;;;;;;;6307909;28;20012;-80
2023/03/20 17:02:16;;;;;;;;;;;;;;;;;;6306498;28;20076;-80
2023/03/20 17:05:18;;;;;;;164.63;101.75;;;;;;;;;;6310987;28;19908;-79
2023/03/20 17:08:25;;;;;;;176.73;109.25;;;;;;;;;;6313416;28;21258;-80
2023/03/20 17:11:28;;;;;;;164.65;95.18;;;;;;;;;;6297741;28;20039;-80
2023/03/20 17:14:28;;;;;;;145.60;87.75;;;;;;;;;;6318945;28;20472;-79
2023/03/20 17:17:29;;;;;;;177.90;107.23;;;;;;;;;;6317198;28;20035;-80
2023/03/20 17:20:30;;;;;;;205.57;115.27;;;;;;;;;;6317369;28;20020;-80
2023/03/20 17:23:31;;;;;;;252.98;126.68;;;;;;;;;;6310228;28;20492;-80
2023/03/20 17:26:31;;;;;;;203.73;104.93;;;;;;;;;;6299423;28;20072;-79
2023/03/20 17:29:31;;;;;;;217.77;112.27;;;;;;;;;;6318763;28;20114;-80
2023/03/20 17:32:32;;;;;;;183.40;102.85;;;;;;;;;;6306520;28;20051;-79
2023/03/20 17:35:32;;;;;;;199.37;105.17;;;;;;;;;;6311779;28;20478;-80
2023/03/20 17:38:32;;;;;;;204.23;106.40;;;;;;;;;;6316416;28;20512;-79
2023/03/20 17:41:33;;;;;;;202.33;103.47;;;;;;;;;;6318781;28;20035;-80
2023/03/20 17:44:33;;;;;;;167.43;97.17;;;;;;;;;;6312706;28;20118;-78
2023/03/20 17:47:33;;;;;;;205.13;111.80;;;;;;;;;;6308434;28;20417;-78